This is the latest recevied weather packets stored in our database for station/object DL4JCP-6. If no packets are shown the sender has not sent any weather packets the latest 10 day(s).
| Time | Temp. | Humidity | Pressure | Rain* | Wind** | Luminosity | Snow |
|---|---|---|---|---|---|---|---|
| 1778150892 | 10° C | 94% | 1012.2 hPa | 0.51 mm | - | - | - |
| 1778149992 | 10° C | 94% | 1012 hPa | 0.76 mm | - | - | - |
| 1778149094 | 10° C | 93% | 1011.8 hPa | 0.76 mm | - | - | - |
| 1778148192 | 10° C | 93% | 1011.7 hPa | 0.51 mm | - | - | - |
| 1778147292 | 10° C | 92% | 1011.5 hPa | 0.51 mm | - | - | - |
| 1778146392 | 10.56° C | 89% | 1011.4 hPa | 0.25 mm | - | - | - |
| 1778145492 | 11.67° C | 87% | 1011.4 hPa | 0 mm | - | - | - |
| 1778144592 | 11.67° C | 86% | 1011.2 hPa | 0 mm | - | - | - |
| 1778143692 | 11.67° C | 87% | 1011.1 hPa | 0 mm | - | - | - |
| 1778142793 | 11.67° C | 89% | 1011 hPa | 0 mm | - | - | - |
| 1778141892 | 10.56° C | 90% | 1010.7 hPa | 0 mm | - | - | - |
| 1778140992 | 11.11° C | 89% | 1010.7 hPa | 0 mm | - | - | - |
| 1778140092 | 11.11° C | 90% | 1010.6 hPa | 0 mm | - | - | - |
| 1778139193 | 10.56° C | 92% | 1010.3 hPa | 0.25 mm | - | - | - |
| 1778138292 | 10° C | 92% | 1010.3 hPa | 0.51 mm | - | - | - |
| 1778137392 | 10° C | 92% | 1010.3 hPa | 0.51 mm | - | - | - |
| 1778136492 | 10° C | 92% | 1010.3 hPa | 0.51 mm | - | - | - |
| 1778135592 | 10° C | 92% | 1010.3 hPa | 0.25 mm | - | - | - |
| 1778134692 | 10.56° C | 92% | 1010.1 hPa | 0 mm | - | - | - |
| 1778133792 | 10.56° C | 92% | 1010 hPa | 0 mm | - | - | - |
| 1778132892 | 10.56° C | 93% | 1009.8 hPa | 0 mm | - | - | - |
| 1778131992 | 10° C | 94% | 1009.8 hPa | 0 mm | - | - | - |
| 1778131092 | 10° C | 94% | 1009.8 hPa | 0 mm | - | - | - |
| 1778130192 | 10° C | 94% | 1009.7 hPa | 0 mm | - | - | - |
| 1778129292 | 9.44° C | 94% | 1009.6 hPa | 0.25 mm | - | - | - |
* Rain latest hour (hover to see other rain measurements)
** Current wind speed in m/s (hover to see current wind gust speed)